sensor_id;sensor_type;location;lat;lon;timestamp;pressure;altitude;pressure_sealevel;temperature;humidity
55675;BME280;41562;44.330;23.802;2023-06-10T00:00:47;99736.66;;;19.22;100.00
55675;BME280;41562;44.330;23.802;2023-06-10T00:03:14;99734.19;;;19.17;100.00
55675;BME280;41562;44.330;23.802;2023-06-10T00:05:42;99726.84;;;19.06;100.00
55675;BME280;41562;44.330;23.802;2023-06-10T00:08:10;99727.53;;;19.03;100.00
55675;BME280;41562;44.330;23.802;2023-06-10T00:10:38;99723.50;;;18.97;100.00
55675;BME280;41562;44.330;23.802;2023-06-10T00:13:06;99724.63;;;18.96;100.00
55675;BME280;41562;44.330;23.802;2023-06-10T00:15:34;99718.97;;;19.01;100.00
55675;BME280;41562;44.330;23.802;2023-06-10T00:18:02;99719.19;;;19.08;100.00
55675;BME280;41562;44.330;23.802;2023-06-10T00:20:31;99716.34;;;19.04;100.00
55675;BME280;41562;44.330;23.802;2023-06-10T00:22:58;99725.84;;;18.98;100.00
55675;BME280;41562;44.330;23.802;2023-06-10T00:25:27;99726.75;;;19.02;100.00
55675;BME280;41562;44.330;23.802;2023-06-10T00:27:55;99729.78;;;19.01;100.00
55675;BME280;41562;44.330;23.802;2023-06-10T00:30:22;99720.78;;;19.09;100.00
55675;BME280;41562;44.330;23.802;2023-06-10T00:32:50;99720.06;;;19.12;100.00
55675;BME280;41562;44.330;23.802;2023-06-10T00:35:17;99727.75;;;19.10;100.00
55675;BME280;41562;44.330;23.802;2023-06-10T00:37:45;99718.84;;;19.09;100.00
55675;BME280;41562;44.330;23.802;2023-06-10T00:40:12;99725.16;;;19.01;100.00
55675;BME280;41562;44.330;23.802;2023-06-10T00:42:40;99726.53;;;18.95;100.00
55675;BME280;41562;44.330;23.802;2023-06-10T00:45:07;99719.41;;;18.91;100.00
55675;BME280;41562;44.330;23.802;2023-06-10T00:47:35;99726.63;;;18.86;100.00
55675;BME280;41562;44.330;23.802;2023-06-10T00:50:04;99730.22;;;18.91;100.00
55675;BME280;41562;44.330;23.802;2023-06-10T00:52:33;99728.88;;;18.84;100.00
55675;BME280;41562;44.330;23.802;2023-06-10T00:55:02;99726.41;;;18.79;100.00
55675;BME280;41562;44.330;23.802;2023-06-10T00:57:30;99728.31;;;18.79;100.00
55675;BME280;41562;44.330;23.802;2023-06-10T01:03:20;99723.91;;;18.86;100.00
55675;BME280;41562;44.330;23.802;2023-06-10T01:08:52;99723.34;;;18.69;100.00
55675;BME280;41562;44.330;23.802;2023-06-10T01:11:25;99719.38;;;18.66;100.00
55675;BME280;41562;44.330;23.802;2023-06-10T01:13:55;99711.72;;;18.56;100.00
55675;BME280;41562;44.330;23.802;2023-06-10T01:16:23;99717.75;;;18.53;100.00
55675;BME280;41562;44.330;23.802;2023-06-10T01:18:50;99711.44;;;18.49;100.00
55675;BME280;41562;44.330;23.802;2023-06-10T01:21:22;99710.19;;;18.46;100.00
55675;BME280;41562;44.330;23.802;2023-06-10T01:23:52;99717.84;;;18.32;100.00
55675;BME280;41562;44.330;23.802;2023-06-10T01:26:22;99716.94;;;18.40;100.00
55675;BME280;41562;44.330;23.802;2023-06-10T01:28:52;99719.88;;;18.35;100.00
55675;BME280;41562;44.330;23.802;2023-06-10T01:31:38;99722.69;;;18.27;100.00
55675;BME280;41562;44.330;23.802;2023-06-10T01:34:11;99722.16;;;18.33;100.00
55675;BME280;41562;44.330;23.802;2023-06-10T01:36:40;99712.75;;;18.31;100.00
55675;BME280;41562;44.330;23.802;2023-06-10T01:39:10;99715.00;;;18.29;100.00
55675;BME280;41562;44.330;23.802;2023-06-10T01:41:38;99708.22;;;18.23;100.00
55675;BME280;41562;44.330;23.802;2023-06-10T01:44:05;99707.78;;;18.21;100.00
55675;BME280;41562;44.330;23.802;2023-06-10T01:46:33;99698.97;;;18.24;100.00
55675;BME280;41562;44.330;23.802;2023-06-10T01:49:00;99703.50;;;18.20;100.00
55675;BME280;41562;44.330;23.802;2023-06-10T01:51:27;99698.09;;;18.20;100.00
55675;BME280;41562;44.330;23.802;2023-06-10T01:53:54;99698.31;;;18.15;100.00
55675;BME280;41562;44.330;23.802;2023-06-10T01:56:21;99697.50;;;18.14;100.00
55675;BME280;41562;44.330;23.802;2023-06-10T01:58:48;99696.34;;;18.15;100.00
55675;BME280;41562;44.330;23.802;2023-06-10T02:01:16;99694.34;;;18.12;100.00
55675;BME280;41562;44.330;23.802;2023-06-10T02:03:43;99696.47;;;18.06;100.00
55675;BME280;41562;44.330;23.802;2023-06-10T02:06:10;99695.22;;;18.04;100.00
55675;BME280;41562;44.330;23.802;2023-06-10T02:08:38;99711.88;;;18.27;100.00
55675;BME280;41562;44.330;23.802;2023-06-10T02:11:05;99716.34;;;18.23;100.00
55675;BME280;41562;44.330;23.802;2023-06-10T02:13:32;99712.75;;;18.31;100.00
55675;BME280;41562;44.330;23.802;2023-06-10T02:16:00;99716.94;;;18.40;100.00
55675;BME280;41562;44.330;23.802;2023-06-10T02:18:28;99712.06;;;18.34;100.00
55675;BME280;41562;44.330;23.802;2023-06-10T02:20:55;99699.81;;;18.36;100.00
55675;BME280;41562;44.330;23.802;2023-06-10T02:23:22;99705.75;;;18.30;100.00
55675;BME280;41562;44.330;23.802;2023-06-10T02:25:49;99706.44;;;18.27;100.00
55675;BME280;41562;44.330;23.802;2023-06-10T02:28:17;99711.63;;;18.32;100.00
55675;BME280;41562;44.330;23.802;2023-06-10T02:30:44;99714.69;;;18.30;100.00
55675;BME280;41562;44.330;23.802;2023-06-10T02:33:11;99706.31;;;18.23;100.00
55675;BME280;41562;44.330;23.802;2023-06-10T02:35:39;99708.44;;;18.18;100.00
55675;BME280;41562;44.330;23.802;2023-06-10T02:38:06;99708.44;;;18.18;100.00
55675;BME280;41562;44.330;23.802;2023-06-10T02:40:34;99712.47;;;18.12;100.00
55675;BME280;41562;44.330;23.802;2023-06-10T02:43:01;99711.38;;;18.13;100.00
55675;BME280;41562;44.330;23.802;2023-06-10T02:45:28;99714.63;;;18.06;100.00
55675;BME280;41562;44.330;23.802;2023-06-10T02:47:56;99716.41;;;18.02;100.00
55675;BME280;41562;44.330;23.802;2023-06-10T02:50:23;99709.28;;;17.97;100.00
55675;BME280;41562;44.330;23.802;2023-06-10T02:52:50;99704.13;;;18.04;100.00
55675;BME280;41562;44.330;23.802;2023-06-10T02:55:17;99710.66;;;18.03;100.00
55675;BME280;41562;44.330;23.802;2023-06-10T02:57:44;99718.31;;;18.01;100.00
55675;BME280;41562;44.330;23.802;2023-06-10T03:00:12;99714.81;;;18.01;100.00
55675;BME280;41562;44.330;23.802;2023-06-10T03:02:42;99712.19;;;17.92;100.00
55675;BME280;41562;44.330;23.802;2023-06-10T03:05:09;99710.59;;;17.91;100.00
55675;BME280;41562;44.330;23.802;2023-06-10T03:07:37;99712.97;;;17.93;100.00
55675;BME280;41562;44.330;23.802;2023-06-10T03:10:05;99712.38;;;18.08;100.00
55675;BME280;41562;44.330;23.802;2023-06-10T03:12:32;99718.81;;;18.16;100.00
55675;BME280;41562;44.330;23.802;2023-06-10T03:14:59;99724.22;;;18.16;100.00
55675;BME280;41562;44.330;23.802;2023-06-10T03:17:26;99728.28;;;18.22;100.00
55675;BME280;41562;44.330;23.802;2023-06-10T03:19:54;99728.41;;;18.13;100.00
55675;BME280;41562;44.330;23.802;2023-06-10T03:22:21;99719.00;;;18.11;100.00
55675;BME280;41562;44.330;23.802;2023-06-10T03:24:48;99721.25;;;18.08;100.00
55675;BME280;41562;44.330;23.802;2023-06-10T03:27:15;99722.19;;;18.13;100.00
55675;BME280;41562;44.330;23.802;2023-06-10T03:29:43;99729.03;;;18.10;100.00
55675;BME280;41562;44.330;23.802;2023-06-10T03:32:10;99727.94;;;18.11;100.00
55675;BME280;41562;44.330;23.802;2023-06-10T03:34:37;99741.34;;;18.07;100.00
55675;BME280;41562;44.330;23.802;2023-06-10T03:37:05;99737.69;;;18.03;100.00
55675;BME280;41562;44.330;23.802;2023-06-10T03:39:32;99734.78;;;18.08;100.00
55675;BME280;41562;44.330;23.802;2023-06-10T03:42:00;99752.28;;;18.11;100.00
55675;BME280;41562;44.330;23.802;2023-06-10T03:44:27;99743.84;;;18.13;100.00
55675;BME280;41562;44.330;23.802;2023-06-10T03:46:55;99738.50;;;18.04;100.00
55675;BME280;41562;44.330;23.802;2023-06-10T03:49:22;99739.06;;;18.09;100.00
55675;BME280;41562;44.330;23.802;2023-06-10T03:51:50;99744.50;;;18.09;100.00
55675;BME280;41562;44.330;23.802;2023-06-10T03:54:18;99742.91;;;18.08;100.00
55675;BME280;41562;44.330;23.802;2023-06-10T03:56:45;99745.59;;;18.08;100.00
55675;BME280;41562;44.330;23.802;2023-06-10T03:59:13;99741.34;;;18.07;100.00
55675;BME280;41562;44.330;23.802;2023-06-10T04:01:40;99753.50;;;19.16;100.00
55675;BME280;41562;44.330;23.802;2023-06-10T04:04:07;99747.69;;;19.42;100.00
55675;BME280;41562;44.330;23.802;2023-06-10T04:06:34;99749.84;;;19.60;100.00
55675;BME280;41562;44.330;23.802;2023-06-10T04:09:01;99754.22;;;19.77;99.21
55675;BME280;41562;44.330;23.802;2023-06-10T04:11:28;99752.41;;;20.09;99.01
55675;BME280;41562;44.330;23.802;2023-06-10T04:13:56;99752.31;;;20.05;100.00
55675;BME280;41562;44.330;23.802;2023-06-10T04:16:33;99746.00;;;20.29;99.42
55675;BME280;41562;44.330;23.802;2023-06-10T04:19:01;99744.88;;;20.18;97.57
55675;BME280;41562;44.330;23.802;2023-06-10T04:21:28;99752.06;;;19.83;99.61
55675;BME280;41562;44.330;23.802;2023-06-10T04:23:55;99752.69;;;19.92;99.06
55675;BME280;41562;44.330;23.802;2023-06-10T04:26:23;99748.97;;;19.56;100.00
55675;BME280;41562;44.330;23.802;2023-06-10T04:28:50;99742.81;;;19.72;100.00
55675;BME280;41562;44.330;23.802;2023-06-10T04:31:18;99748.44;;;20.06;100.00
55675;BME280;41562;44.330;23.802;2023-06-10T04:33:45;99744.88;;;20.18;98.72
55675;BME280;41562;44.330;23.802;2023-06-10T04:36:12;99752.69;;;19.92;98.40
55675;BME280;41562;44.330;23.802;2023-06-10T04:38:39;99751.44;;;20.17;97.38
55675;BME280;41562;44.330;23.802;2023-06-10T04:41:07;99755.06;;;19.93;98.19
55675;BME280;41562;44.330;23.802;2023-06-10T04:43:34;99754.56;;;19.76;98.99
55675;BME280;41562;44.330;23.802;2023-06-10T04:46:02;99762.38;;;20.05;97.67
55675;BME280;41562;44.330;23.802;2023-06-10T04:48:33;99760.19;;;19.83;98.73
55675;BME280;41562;44.330;23.802;2023-06-10T04:51:00;99762.72;;;19.63;100.00
55675;BME280;41562;44.330;23.802;2023-06-10T04:53:27;99768.38;;;19.98;98.11
55675;BME280;41562;44.330;23.802;2023-06-10T04:55:56;99766.78;;;19.70;100.00
55675;BME280;41562;44.330;23.802;2023-06-10T04:58:23;99764.97;;;19.74;99.96
55675;BME280;41562;44.330;23.802;2023-06-10T05:00:51;99773.50;;;19.88;99.15
55675;BME280;41562;44.330;23.802;2023-06-10T05:03:19;99764.75;;;19.79;99.77
55675;BME280;41562;44.330;23.802;2023-06-10T05:05:46;99768.59;;;19.78;99.08
55675;BME280;41562;44.330;23.802;2023-06-10T05:08:14;99771.97;;;19.75;99.36
55675;BME280;41562;44.330;23.802;2023-06-10T05:10:41;99779.56;;;20.09;97.51
55675;BME280;41562;44.330;23.802;2023-06-10T05:13:09;99775.41;;;19.99;97.25
55675;BME280;41562;44.330;23.802;2023-06-10T05:15:36;99774.56;;;20.11;96.80
55675;BME280;41562;44.330;23.802;2023-06-10T05:18:03;99773.63;;;19.91;97.71
55675;BME280;41562;44.330;23.802;2023-06-10T05:20:31;99769.97;;;19.99;98.04
55675;BME280;41562;44.330;23.802;2023-06-10T05:22:58;99772.44;;;20.04;98.22
55675;BME280;41562;44.330;23.802;2023-06-10T05:25:30;99758.91;;;20.20;97.12
55675;BME280;41562;44.330;23.802;2023-06-10T05:27:58;99761.84;;;20.27;97.27
55675;BME280;41562;44.330;23.802;2023-06-10T05:30:26;99764.88;;;20.54;94.99
55675;BME280;41562;44.330;23.802;2023-06-10T05:32:53;99769.19;;;20.27;97.26
55675;BME280;41562;44.330;23.802;2023-06-10T05:35:21;99768.09;;;20.16;98.07
55675;BME280;41562;44.330;23.802;2023-06-10T05:37:49;99768.81;;;20.40;96.13
55675;BME280;41562;44.330;23.802;2023-06-10T05:40:16;99765.69;;;20.70;95.11
55675;BME280;41562;44.330;23.802;2023-06-10T05:42:45;99772.63;;;20.67;94.76
55675;BME280;41562;44.330;23.802;2023-06-10T05:45:13;99767.53;;;20.81;94.07
55675;BME280;41562;44.330;23.802;2023-06-10T05:47:43;99759.88;;;20.87;93.75
55675;BME280;41562;44.330;23.802;2023-06-10T05:50:10;99766.41;;;20.98;92.90
55675;BME280;41562;44.330;23.802;2023-06-10T05:52:38;99748.78;;;20.92;93.21
55675;BME280;41562;44.330;23.802;2023-06-10T05:55:06;99747.19;;;20.91;93.11
55675;BME280;41562;44.330;23.802;2023-06-10T05:57:34;99746.53;;;21.13;92.56
55675;BME280;41562;44.330;23.802;2023-06-10T06:00:02;99755.06;;;21.27;91.67
55675;BME280;41562;44.330;23.802;2023-06-10T06:02:29;99753.22;;;21.66;88.55
55675;BME280;41562;44.330;23.802;2023-06-10T06:04:57;99752.47;;;21.70;88.22
55675;BME280;41562;44.330;23.802;2023-06-10T06:07:25;99757.41;;;21.64;88.34
55675;BME280;41562;44.330;23.802;2023-06-10T06:09:52;99762.06;;;21.63;87.74
55675;BME280;41562;44.330;23.802;2023-06-10T06:12:20;99761.69;;;21.46;88.66
55675;BME280;41562;44.330;23.802;2023-06-10T06:14:48;99752.72;;;21.61;89.05
55675;BME280;41562;44.330;23.802;2023-06-10T06:17:15;99756.88;;;21.93;87.26
55675;BME280;41562;44.330;23.802;2023-06-10T06:19:43;99756.03;;;22.09;87.48
55675;BME280;41562;44.330;23.802;2023-06-10T06:22:10;99746.34;;;21.92;87.13
55675;BME280;41562;44.330;23.802;2023-06-10T06:24:38;99743.69;;;21.76;87.09
55675;BME280;41562;44.330;23.802;2023-06-10T06:27:05;99748.44;;;21.98;86.25
55675;BME280;41562;44.330;23.802;2023-06-10T06:29:33;99747.53;;;22.33;87.12
55675;BME280;41562;44.330;23.802;2023-06-10T06:32:01;99745.91;;;22.51;87.38
55675;BME280;41562;44.330;23.802;2023-06-10T06:34:28;99738.31;;;22.37;85.36
55675;BME280;41562;44.330;23.802;2023-06-10T06:36:56;99744.84;;;22.14;86.78
55675;BME280;41562;44.330;23.802;2023-06-10T06:39:23;99737.75;;;22.09;86.66
55675;BME280;41562;44.330;23.802;2023-06-10T06:41:50;99749.00;;;22.08;85.05
55675;BME280;41562;44.330;23.802;2023-06-10T06:44:18;99747.72;;;22.01;83.98
55675;BME280;41562;44.330;23.802;2023-06-10T06:46:45;99742.75;;;22.26;83.47
55675;BME280;41562;44.330;23.802;2023-06-10T06:49:13;99744.28;;;22.24;82.22
55675;BME280;41562;44.330;23.802;2023-06-10T06:51:40;99737.72;;;22.28;82.75
55675;BME280;41562;44.330;23.802;2023-06-10T06:54:08;99739.81;;;22.35;82.84
55675;BME280;41562;44.330;23.802;2023-06-10T06:56:35;99737.94;;;22.62;80.84
55675;BME280;41562;44.330;23.802;2023-06-10T06:59:02;99733.06;;;22.94;77.95
55675;BME280;41562;44.330;23.802;2023-06-10T07:01:33;99737.44;;;23.28;77.65
55675;BME280;41562;44.330;23.802;2023-06-10T07:04:01;99740.47;;;23.76;77.86
55675;BME280;41562;44.330;23.802;2023-06-10T07:06:28;99730.06;;;23.55;77.79
55675;BME280;41562;44.330;23.802;2023-06-10T07:08:56;99737.91;;;23.34;77.95
55675;BME280;41562;44.330;23.802;2023-06-10T07:11:24;99726.41;;;23.17;78.01
55675;BME280;41562;44.330;23.802;2023-06-10T07:13:52;99731.59;;;23.00;78.74
55675;BME280;41562;44.330;23.802;2023-06-10T07:16:22;99736.19;;;23.22;78.72
55675;BME280;41562;44.330;23.802;2023-06-10T07:18:52;99728.66;;;23.64;75.79
55675;BME280;41562;44.330;23.802;2023-06-10T07:21:23;99735.69;;;23.99;74.18
55675;BME280;41562;44.330;23.802;2023-06-10T07:23:51;99737.53;;;24.21;74.69
55675;BME280;41562;44.330;23.802;2023-06-10T07:26:19;99728.38;;;24.43;73.78
55675;BME280;41562;44.330;23.802;2023-06-10T07:28:46;99726.56;;;24.58;73.53
55675;BME280;41562;44.330;23.802;2023-06-10T07:31:14;99730.09;;;24.62;71.92
55675;BME280;41562;44.330;23.802;2023-06-10T07:33:41;99727.91;;;24.78;70.55
55675;BME280;41562;44.330;23.802;2023-06-10T07:36:09;99723.41;;;24.56;69.83
55675;BME280;41562;44.330;23.802;2023-06-10T07:38:40;99728.28;;;24.80;72.29
55675;BME280;41562;44.330;23.802;2023-06-10T07:41:08;99730.50;;;25.12;71.63
55675;BME280;41562;44.330;23.802;2023-06-10T07:43:38;99724.72;;;25.24;67.17
55675;BME280;41562;44.330;23.802;2023-06-10T07:46:08;99723.66;;;25.43;66.51
55675;BME280;41562;44.330;23.802;2023-06-10T07:48:36;99719.38;;;25.49;69.29
55675;BME280;41562;44.330;23.802;2023-06-10T07:51:06;99722.59;;;25.58;68.65
55675;BME280;41562;44.330;23.802;2023-06-10T07:53:34;99715.59;;;25.68;66.91
55675;BME280;41562;44.330;23.802;2023-06-10T07:56:04;99721.13;;;25.78;67.30
55675;BME280;41562;44.330;23.802;2023-06-10T07:58:31;99713.25;;;25.66;68.30
55675;BME280;41562;44.330;23.802;2023-06-10T08:00:59;99713.66;;;25.75;66.92
55675;BME280;41562;44.330;23.802;2023-06-10T08:03:29;99710.91;;;25.68;66.31
55675;BME280;41562;44.330;23.802;2023-06-10T08:06:00;99713.94;;;25.56;67.13
55675;BME280;41562;44.330;23.802;2023-06-10T08:08:30;99713.66;;;25.75;69.12
55675;BME280;41562;44.330;23.802;2023-06-10T08:11:03;99716.44;;;25.82;68.46
55675;BME280;41562;44.330;23.802;2023-06-10T08:13:31;99718.78;;;25.87;69.46
55675;BME280;41562;44.330;23.802;2023-06-10T08:16:02;99709.00;;;25.86;68.68
55675;BME280;41562;44.330;23.802;2023-06-10T08:18:30;99715.69;;;25.99;69.58
55675;BME280;41562;44.330;23.802;2023-06-10T08:21:00;99705.94;;;26.02;66.88
55675;BME280;41562;44.330;23.802;2023-06-10T08:23:34;99714.16;;;26.13;68.78
55675;BME280;41562;44.330;23.802;2023-06-10T08:26:05;99715.38;;;26.22;67.90
55675;BME280;41562;44.330;23.802;2023-06-10T08:28:32;99706.31;;;26.00;67.53
55675;BME280;41562;44.330;23.802;2023-06-10T08:31:03;99712.47;;;25.66;67.83
55675;BME280;41562;44.330;23.802;2023-06-10T08:36:54;99709.44;;;25.99;68.54
55675;BME280;41562;44.330;23.802;2023-06-10T08:39:30;99706.38;;;26.22;68.87
55675;BME280;41562;44.330;23.802;2023-06-10T08:42:11;99703.22;;;26.20;65.75
55675;BME280;41562;44.330;23.802;2023-06-10T08:44:42;99704.06;;;26.38;66.52
55675;BME280;41562;44.330;23.802;2023-06-10T08:47:14;99700.94;;;26.32;65.78
55675;BME280;41562;44.330;23.802;2023-06-10T08:49:45;99703.25;;;26.30;64.94
55675;BME280;41562;44.330;23.802;2023-06-10T08:52:17;99693.50;;;26.33;65.99
55675;BME280;41562;44.330;23.802;2023-06-10T08:54:52;99693.88;;;26.35;64.05
55675;BME280;41562;44.330;23.802;2023-06-10T08:57:22;99686.44;;;26.32;62.50
55675;BME280;41562;44.330;23.802;2023-06-10T08:59:49;99678.16;;;26.11;64.11
55675;BME280;41562;44.330;23.802;2023-06-10T09:02:18;99677.31;;;25.89;65.03
55675;BME280;41562;44.330;23.802;2023-06-10T09:04:49;99680.53;;;26.16;64.61
55675;BME280;41562;44.330;23.802;2023-06-10T09:07:16;99674.97;;;25.87;66.21
55675;BME280;41562;44.330;23.802;2023-06-10T09:09:46;99671.63;;;25.43;66.44
55675;BME280;41562;44.330;23.802;2023-06-10T09:12:14;99666.81;;;25.18;68.08
55675;BME280;41562;44.330;23.802;2023-06-10T09:14:45;99672.47;;;24.89;68.65
55675;BME280;41562;44.330;23.802;2023-06-10T09:17:20;99663.81;;;24.76;70.78
55675;BME280;41562;44.330;23.802;2023-06-10T09:19:50;99671.16;;;24.65;72.09
55675;BME280;41562;44.330;23.802;2023-06-10T09:22:19;99671.84;;;24.55;72.19
55675;BME280;41562;44.330;23.802;2023-06-10T09:24:49;99667.88;;;24.49;74.14
55675;BME280;41562;44.330;23.802;2023-06-10T09:27:20;99663.84;;;24.35;71.66
55675;BME280;41562;44.330;23.802;2023-06-10T09:29:54;99658.66;;;24.23;71.76
55675;BME280;41562;44.330;23.802;2023-06-10T09:32:23;99657.50;;;24.21;73.13
55675;BME280;41562;44.330;23.802;2023-06-10T09:34:55;99660.59;;;24.19;73.44
55675;BME280;41562;44.330;23.802;2023-06-10T09:37:23;99659.75;;;24.15;72.62
55675;BME280;41562;44.330;23.802;2023-06-10T09:40:07;99653.09;;;24.16;73.09
55675;BME280;41562;44.330;23.802;2023-06-10T09:42:38;99654.28;;;24.15;72.92
55675;BME280;41562;44.330;23.802;2023-06-10T09:45:06;99659.75;;;24.15;73.26
55675;BME280;41562;44.330;23.802;2023-06-10T09:47:34;99659.72;;;24.12;72.77
55675;BME280;41562;44.330;23.802;2023-06-10T09:50:02;99649.53;;;24.09;72.85
55675;BME280;41562;44.330;23.802;2023-06-10T09:52:30;99656.94;;;24.08;73.51
55675;BME280;41562;44.330;23.802;2023-06-10T09:55:01;99649.91;;;24.07;74.43
55675;BME280;41562;44.330;23.802;2023-06-10T09:57:32;99647.22;;;24.11;70.71
55675;BME280;41562;44.330;23.802;2023-06-10T10:00:07;99651.88;;;24.10;71.91
55675;BME280;41562;44.330;23.802;2023-06-10T10:02:53;99642.50;;;24.08;72.64
55675;BME280;41562;44.330;23.802;2023-06-10T10:05:22;99641.72;;;24.07;73.01
55675;BME280;41562;44.330;23.802;2023-06-10T10:07:54;99634.69;;;24.06;73.09
55675;BME280;41562;44.330;23.802;2023-06-10T10:10:22;99634.34;;;24.11;73.26
55675;BME280;41562;44.330;23.802;2023-06-10T10:12:56;99637.91;;;24.15;73.10
55675;BME280;41562;44.330;23.802;2023-06-10T10:15:30;99632.28;;;24.01;79.21
55675;BME280;41562;44.330;23.802;2023-06-10T10:18:07;99635.50;;;23.73;80.18
55675;BME280;41562;44.330;23.802;2023-06-10T10:20:45;99629.59;;;23.68;81.81
55675;BME280;41562;44.330;23.802;2023-06-10T10:23:18;99637.34;;;23.62;82.37
55675;BME280;41562;44.330;23.802;2023-06-10T10:25:51;99638.75;;;23.49;88.55
55675;BME280;41562;44.330;23.802;2023-06-10T10:28:21;99640.47;;;23.34;89.89
55675;BME280;41562;44.330;23.802;2023-06-10T10:30:54;99645.44;;;23.25;88.71
55675;BME280;41562;44.330;23.802;2023-06-10T10:36:06;99650.47;;;23.23;87.04
55675;BME280;41562;44.330;23.802;2023-06-10T10:38:34;99656.00;;;23.00;85.81
55675;BME280;41562;44.330;23.802;2023-06-10T10:41:04;99645.13;;;23.04;83.00
55675;BME280;41562;44.330;23.802;2023-06-10T10:43:32;99636.13;;;23.00;77.80
55675;BME280;41562;44.330;23.802;2023-06-10T10:46:01;99637.72;;;23.01;78.64
55675;BME280;41562;44.330;23.802;2023-06-10T10:48:38;99639.31;;;23.05;80.56
55675;BME280;41562;44.330;23.802;2023-06-10T10:51:07;99639.69;;;23.04;80.79
55675;BME280;41562;44.330;23.802;2023-06-10T10:53:37;99640.53;;;23.08;79.53
55675;BME280;41562;44.330;23.802;2023-06-10T10:56:06;99640.91;;;23.06;79.58
55675;BME280;41562;44.330;23.802;2023-06-10T10:58:34;99631.19;;;23.09;80.55
55675;BME280;41562;44.330;23.802;2023-06-10T11:01:12;99635.09;;;23.08;81.05
55675;BME280;41562;44.330;23.802;2023-06-10T11:03:44;99636.34;;;23.14;80.57
55675;BME280;41562;44.330;23.802;2023-06-10T11:06:13;99641.47;;;23.19;80.11
55675;BME280;41562;44.330;23.802;2023-06-10T11:11:35;99638.41;;;23.24;80.79
55675;BME280;41562;44.330;23.802;2023-06-10T11:14:30;99634.91;;;23.27;81.78
55675;BME280;41562;44.330;23.802;2023-06-10T11:16:58;99628.47;;;23.39;80.50
55675;BME280;41562;44.330;23.802;2023-06-10T11:19:37;99620.25;;;23.69;79.12
55675;BME280;41562;44.330;23.802;2023-06-10T11:22:07;99611.31;;;24.12;78.41
55675;BME280;41562;44.330;23.802;2023-06-10T11:24:35;99612.69;;;24.32;79.42
55675;BME280;41562;44.330;23.802;2023-06-10T11:27:20;99612.31;;;24.34;77.92
55675;BME280;41562;44.330;23.802;2023-06-10T11:32:34;99608.50;;;24.46;78.00
55675;BME280;41562;44.330;23.802;2023-06-10T11:35:07;99604.25;;;24.52;78.74
55675;BME280;41562;44.330;23.802;2023-06-10T11:37:35;99609.72;;;24.52;75.16
55675;BME280;41562;44.330;23.802;2023-06-10T11:40:03;99617.94;;;24.52;71.49
55675;BME280;41562;44.330;23.802;2023-06-10T11:42:31;99617.09;;;24.48;73.48
55675;BME280;41562;44.330;23.802;2023-06-10T11:44:58;99614.34;;;24.48;73.53
55675;BME280;41562;44.330;23.802;2023-06-10T11:47:26;99607.31;;;24.43;72.05
55675;BME280;41562;44.330;23.802;2023-06-10T11:49:56;99601.09;;;24.46;73.84
55675;BME280;41562;44.330;23.802;2023-06-10T11:52:29;99606.19;;;24.51;68.41
55675;BME280;41562;44.330;23.802;2023-06-10T11:54:56;99617.19;;;24.58;72.51
55675;BME280;41562;44.330;23.802;2023-06-10T11:57:24;99619.56;;;24.67;71.65
55675;BME280;41562;44.330;23.802;2023-06-10T11:59:51;99615.72;;;24.71;74.55
55675;BME280;41562;44.330;23.802;2023-06-10T12:02:19;99623.34;;;24.99;75.37
55675;BME280;41562;44.330;23.802;2023-06-10T12:04:46;99624.16;;;25.10;75.65
55675;BME280;41562;44.330;23.802;2023-06-10T12:07:18;99628.81;;;24.99;73.02
55675;BME280;41562;44.330;23.802;2023-06-10T12:09:45;99622.25;;;24.60;69.27
55675;BME280;41562;44.330;23.802;2023-06-10T12:12:13;99630.03;;;24.54;68.60
55675;BME280;41562;44.330;23.802;2023-06-10T12:20:00;99610.81;;;24.91;71.41
55675;BME280;41562;44.330;23.802;2023-06-10T12:22:39;99599.56;;;25.14;69.62
55675;BME280;41562;44.330;23.802;2023-06-10T12:25:08;99581.25;;;25.29;67.56
55675;BME280;41562;44.330;23.802;2023-06-10T12:27:38;99585.50;;;25.19;67.87
55675;BME280;41562;44.330;23.802;2023-06-10T12:30:06;99577.63;;;25.03;67.64
55675;BME280;41562;44.330;23.802;2023-06-10T12:32:44;99575.19;;;24.88;65.73
55675;BME280;41562;44.330;23.802;2023-06-10T12:35:13;99574.31;;;24.73;65.94
55675;BME280;41562;44.330;23.802;2023-06-10T12:37:41;99570.78;;;24.69;64.77
55675;BME280;41562;44.330;23.802;2023-06-10T12:40:11;99566.88;;;24.70;64.53
55675;BME280;41562;44.330;23.802;2023-06-10T12:42:39;99568.41;;;24.64;65.61
55675;BME280;41562;44.330;23.802;2023-06-10T12:45:07;99560.16;;;24.60;69.12
55675;BME280;41562;44.330;23.802;2023-06-10T12:47:38;99561.63;;;24.47;66.33
55675;BME280;41562;44.330;23.802;2023-06-10T12:50:07;99557.75;;;24.48;64.64
55675;BME280;41562;44.330;23.802;2023-06-10T12:52:35;99560.16;;;24.53;67.59
55675;BME280;41562;44.330;23.802;2023-06-10T12:55:04;99561.69;;;24.54;67.51
55675;BME280;41562;44.330;23.802;2023-06-10T12:57:31;99561.00;;;24.64;67.74
55675;BME280;41562;44.330;23.802;2023-06-10T12:59:59;99562.50;;;24.58;68.25
55675;BME280;41562;44.330;23.802;2023-06-10T13:02:26;99563.25;;;24.55;70.50
55675;BME280;41562;44.330;23.802;2023-06-10T13:04:54;99567.88;;;24.44;73.46
55675;BME280;41562;44.330;23.802;2023-06-10T13:07:21;99568.59;;;24.34;72.94
55675;BME280;41562;44.330;23.802;2023-06-10T13:09:48;99573.66;;;24.32;74.64
55675;BME280;41562;44.330;23.802;2023-06-10T13:12:16;99590.41;;;24.30;74.51
55675;BME280;41562;44.330;23.802;2023-06-10T13:14:49;99584.22;;;24.37;74.77
55675;BME280;41562;44.330;23.802;2023-06-10T13:17:16;99592.41;;;24.33;74.43
55675;BME280;41562;44.330;23.802;2023-06-10T13:19:44;99579.53;;;24.34;74.05